Norton, KS

6:54 PM CDT on April 24, 2017 (GMT -0500)
MKNRN | | Change Station

Elev 2381 ft 39.85 °N, 99.89 °W | Updated 19 minutes ago

Clear
Clear
73.0 °F
Feels Like 76 °F
N
14.0
Wind Variable Wind from NNE

Today
High -- | Low -- °F
--% Chance of Precip.
Yesterday
High -- | Low -- °F
Precip. -- in
Pressure 29.45 in
Visibility 10.0 miles
Clouds Clear
Heat Index 76 °F
Dew Point 37 °F
Humidity 26%
Rainfall 0.00 in
Snow Depth Not available.
6:48 AM 8:27 PM
Waning Crescent, 3% visible
METAR KHLC 242253Z AUTO 01004KT 10SM CLR 27/06 A2950 RMK AO2 SLP971 T02670056 TSNO
Pressure 29.45 in
Visibility 10.0 miles
Clouds Clear
Heat Index 76 °F
Dew Point 37 °F
Humidity 26%
Rainfall 0.00 in
Snow Depth Not available.
6:48 AM 8:27 PM
Waning Crescent, 3% visible
METAR KHLC 242253Z AUTO 01004KT 10SM CLR 27/06 A2950 RMK AO2 SLP971 T02670056 TSNO

Get Severe Weather Alerts

Thanks for signing up!

Be on the lookout for a verification email in your inbox.

You'll start receiving the daily forecast at 8 AM.

×

10-Day Weather Forecast

Almanac

Astronomy

Apr. 24, 2017 Rise Set
Actual Time
Civil Twilight
Nautical Twilight
Astronomical Twilight
Moon
Length of Visible Light
Length of Day
Tomorrow will be .
, % of the Moon is Illuminated

Today's Extremes

State Highs State Lows

Community

WunderPhotos

WunderBlog® & News

Nearby

Air Quality

  Air Quality AQ Index Pollutant
Not available.

Snow Depth

Station Depth Elevation

Earthquake Activity

City Distance Mag. Time & Date
Minimum magnitude displayed is 2.5.

Coastal Water Temperatures

Place Temperature

Stations

Nearby Weather Stations

Station Location Temp. Windchill Dew Point Humidity Wind Precip. Elev Updated Type
                   

Watches & Warnings

There are currently no watches in effect.